createdAt,value
2023-03-11T00:00:30.354Z,98216.53
2023-03-11T00:01:02.187Z,98217.69
2023-03-11T00:01:33.919Z,98217.03
2023-03-11T00:02:05.631Z,98224.28
2023-03-11T00:02:37.331Z,98226.25
2023-03-11T00:03:09.845Z,98229.53
2023-03-11T00:03:41.645Z,98221.13
2023-03-11T00:04:13.352Z,98233.16
2023-03-11T00:04:45.231Z,98229.03
2023-03-11T00:05:25.495Z,98227.09
2023-03-11T00:06:01.232Z,98226.59
2023-03-11T00:06:35.545Z,98234.47
2023-03-11T00:07:09.247Z,98237.41
2023-03-11T00:07:40.980Z,98229.69
2023-03-11T00:08:18.797Z,98235.13
2023-03-11T00:08:52.343Z,98229.88
2023-03-11T00:09:24.300Z,98230.84
2023-03-11T00:09:55.950Z,98241.88
2023-03-11T00:10:34.897Z,98234.47
2023-03-11T00:11:06.577Z,98228.22
2023-03-11T00:11:38.551Z,98230.03
2023-03-11T00:12:10.270Z,98239.75
2023-03-11T00:12:42.096Z,98229.88
2023-03-11T00:13:16.084Z,98223.31
2023-03-11T00:13:47.888Z,98240.41
2023-03-11T00:14:19.581Z,98225.63
2023-03-11T00:14:51.424Z,98223.19
2023-03-11T00:15:23.219Z,98220.38
2023-03-11T00:15:56.380Z,98234.47
2023-03-11T00:16:28.182Z,98228.75
2023-03-11T00:16:59.920Z,98214.13
2023-03-11T00:17:31.616Z,98225.34
2023-03-11T00:18:04.295Z,98215.75
2023-03-11T00:18:36.025Z,98212.47
2023-03-11T00:19:08.145Z,98226.47
2023-03-11T00:19:39.852Z,98230.56
2023-03-11T00:20:23.247Z,98210.84
2023-03-11T00:20:56.681Z,98205.78
2023-03-11T00:21:28.416Z,98224.66
2023-03-11T00:22:02.548Z,98225.47
2023-03-11T00:22:34.400Z,98220.91
2023-03-11T00:23:08.088Z,98228.94
2023-03-11T00:23:39.795Z,98210.72
2023-03-11T00:24:11.631Z,98209.88
2023-03-11T00:24:43.346Z,98213.84
2023-03-11T00:25:15.259Z,98214.84
2023-03-11T00:25:47.466Z,98220.13
2023-03-11T00:26:19.481Z,98214.34
2023-03-11T00:26:51.188Z,98211.22
2023-03-11T00:27:22.917Z,98226.03
2023-03-11T00:27:54.685Z,98217.66
2023-03-11T00:28:27.518Z,98210.88
2023-03-11T00:28:59.227Z,98217.13
2023-03-11T00:29:30.953Z,98220.94
2023-03-11T00:30:02.722Z,98225.69
2023-03-11T00:30:34.528Z,98227.69
2023-03-11T00:31:06.316Z,98226.69
2023-03-11T00:31:38.046Z,98207.47
2023-03-11T00:32:09.769Z,98221.47
2023-03-11T00:32:41.816Z,98227.19
2023-03-11T00:33:15.698Z,98227.19
2023-03-11T00:33:47.559Z,98224.44
2023-03-11T00:34:19.275Z,98229.34
2023-03-11T00:34:50.923Z,98227.25
2023-03-11T00:35:26.814Z,98221.50
2023-03-11T00:35:58.524Z,98230.69
2023-03-11T00:36:33.811Z,98222.47
2023-03-11T00:37:05.493Z,98224.13
2023-03-11T00:37:37.191Z,98227.75
2023-03-11T00:38:15.203Z,98226.44
2023-03-11T00:38:46.900Z,98223.81
2023-03-11T00:39:18.613Z,98226.59
2023-03-11T00:39:50.288Z,98218.53
2023-03-11T00:40:23.424Z,98218.22
2023-03-11T00:40:55.108Z,98216.28
2023-03-11T00:41:26.788Z,98220.22
2023-03-11T00:41:58.539Z,98197.19
2023-03-11T00:42:30.211Z,98214.81
2023-03-11T00:43:02.038Z,98196.72
2023-03-11T00:43:33.822Z,98216.63
2023-03-11T00:44:05.680Z,98210.34
2023-03-11T00:44:37.413Z,98191.47
2023-03-11T00:45:09.733Z,98202.16
2023-03-11T00:45:41.589Z,98215.94
2023-03-11T00:46:13.352Z,98221.53
2023-03-11T00:46:45.062Z,98217.59
2023-03-11T00:47:17.772Z,98210.69
2023-03-11T00:47:50.687Z,98206.75
2023-03-11T00:48:22.419Z,98228.75
2023-03-11T00:48:54.164Z,98227.13
2023-03-11T00:49:25.818Z,98226.16
2023-03-11T00:49:57.518Z,98218.91
2023-03-11T00:50:32.905Z,98227.47
2023-03-11T00:51:06.831Z,98209.16
2023-03-11T00:51:38.546Z,98225.47
2023-03-11T00:52:10.292Z,98214.94
2023-03-11T00:52:42.055Z,98208.34
2023-03-11T00:53:14.006Z,98205.91
2023-03-11T00:53:45.706Z,98204.56
2023-03-11T00:54:17.455Z,98227.09
2023-03-11T00:54:49.200Z,98218.88
2023-03-11T00:55:27.574Z,98227.41
2023-03-11T00:55:59.279Z,98224.47
2023-03-11T00:56:31.214Z,98228.56
2023-03-11T00:57:03.209Z,98220.31
2023-03-11T00:57:34.862Z,98222.66
2023-03-11T00:58:07.357Z,98225.59
2023-03-11T00:58:39.788Z,98222.97
2023-03-11T00:59:11.524Z,98209.81
2023-03-11T00:59:43.510Z,98226.44
2023-03-11T01:00:17.764Z,98219.53
2023-03-11T01:00:49.493Z,98228.09
2023-03-11T01:01:21.383Z,98235.69
2023-03-11T01:01:53.143Z,98206.22
2023-03-11T01:02:24.811Z,98226.28
2023-03-11T01:02:57.465Z,98228.13
2023-03-11T01:03:29.321Z,98221.38
2023-03-11T01:04:01.042Z,98211.34
2023-03-11T01:04:32.934Z,98228.78
2023-03-11T01:05:06.096Z,98211.19
2023-03-11T01:05:37.829Z,98219.25
2023-03-11T01:06:09.928Z,98215.78
2023-03-11T01:06:45.615Z,98213.34
2023-03-11T01:07:17.565Z,98208.06
2023-03-11T01:07:49.381Z,98189.66
2023-03-11T01:08:21.151Z,98208.56
2023-03-11T01:08:52.851Z,98198.19
2023-03-11T01:09:24.570Z,98208.72
2023-03-11T01:09:56.329Z,98194.91
2023-03-11T01:10:29.911Z,98202.50
2023-03-11T01:11:02.344Z,98193.41
2023-03-11T01:11:34.060Z,98195.53
2023-03-11T01:12:06.056Z,98198.81
2023-03-11T01:12:37.825Z,98191.59
2023-03-11T01:13:09.518Z,98193.91
2023-03-11T01:13:41.376Z,98201.13
2023-03-11T01:14:13.127Z,98198.81
2023-03-11T01:14:44.887Z,98197.03
2023-03-11T01:15:28.273Z,98197.19
2023-03-11T01:16:01.102Z,98202.44
2023-03-11T01:16:32.874Z,98198.81
2023-03-11T01:17:04.642Z,98192.91
2023-03-11T01:17:36.420Z,98208.03
2023-03-11T01:18:08.110Z,98221.19
2023-03-11T01:18:39.813Z,98217.88
2023-03-11T01:19:11.498Z,98215.94
2023-03-11T01:19:43.230Z,98219.38
2023-03-11T01:20:15.716Z,98209.00
2023-03-11T01:20:48.275Z,98200.47
2023-03-11T01:21:19.968Z,98209.53
2023-03-11T01:21:51.771Z,98213.97
2023-03-11T01:22:23.597Z,98219.56
2023-03-11T01:22:55.318Z,98203.44
2023-03-11T01:23:27.162Z,98208.56
2023-03-11T01:23:59.001Z,98206.53
2023-03-11T01:24:30.734Z,98210.97
2023-03-11T01:25:02.455Z,98210.00
2023-03-11T01:25:34.465Z,98206.72
2023-03-11T01:26:06.190Z,98192.75
2023-03-11T01:26:38.086Z,98204.41
2023-03-11T01:27:09.893Z,98207.38
2023-03-11T01:27:41.706Z,98205.56
2023-03-11T01:28:13.452Z,98208.84
2023-03-11T01:28:45.235Z,98201.94
2023-03-11T01:29:17.225Z,98206.56
2023-03-11T01:29:48.915Z,98188.28
2023-03-11T01:30:23.686Z,98191.75
2023-03-11T01:30:55.444Z,98187.81
2023-03-11T01:31:27.215Z,98177.78
2023-03-11T01:31:59.371Z,98206.56
2023-03-11T01:32:31.349Z,98210.81
2023-03-11T01:33:04.250Z,98208.69
2023-03-11T01:33:36.488Z,98196.19
2023-03-11T01:34:08.179Z,98186.16
2023-03-11T01:34:39.882Z,98182.88
2023-03-11T01:35:17.153Z,98205.06
2023-03-11T01:35:49.487Z,98203.44
2023-03-11T01:36:21.233Z,98204.25
2023-03-11T01:36:52.946Z,98200.13
2023-03-11T01:37:24.705Z,98196.84
2023-03-11T01:37:56.950Z,98186.97
2023-03-11T01:38:29.881Z,98185.00
2023-03-11T01:39:01.623Z,98195.84
2023-03-11T01:39:33.306Z,98188.63
2023-03-11T01:40:06.753Z,98190.09
2023-03-11T01:40:50.179Z,98193.38
2023-03-11T01:41:21.930Z,98197.00
2023-03-11T01:41:53.834Z,98194.03
2023-03-11T01:42:25.570Z,98183.38
2023-03-11T01:42:58.026Z,98181.56
2023-03-11T01:43:44.185Z,98192.22
2023-03-11T01:44:15.906Z,98177.44
2023-03-11T01:44:47.622Z,98164.16
2023-03-11T01:45:24.970Z,98186.31
2023-03-11T01:45:56.607Z,98187.31
2023-03-11T01:46:33.841Z,98155.63
2023-03-11T01:47:05.584Z,98183.84
2023-03-11T01:47:39.656Z,98179.09
2023-03-11T01:48:11.551Z,98184.53
2023-03-11T01:48:59.982Z,98157.72
2023-03-11T01:49:31.938Z,98185.34
2023-03-11T01:50:06.978Z,98176.13
2023-03-11T01:50:44.262Z,98176.13
2023-03-11T01:51:21.588Z,98176.94
2023-03-11T01:52:07.669Z,98171.50
2023-03-11T01:52:40.976Z,98180.88
2023-03-11T01:53:16.627Z,98178.09
2023-03-11T01:53:48.750Z,98194.00
2023-03-11T01:54:33.828Z,98191.22
2023-03-11T01:55:06.807Z,98193.53
2023-03-11T01:55:39.048Z,98175.13
2023-03-11T01:56:10.818Z,98183.34
2023-03-11T01:56:43.286Z,98175.94
2023-03-11T01:57:15.485Z,98188.91
2023-03-11T01:57:48.684Z,98191.06
2023-03-11T01:58:35.899Z,98199.09
2023-03-11T01:59:11.442Z,98211.25
2023-03-11T01:59:52.026Z,98203.38
2023-03-11T02:00:23.946Z,98209.59
2023-03-11T02:00:57.203Z,98205.81
2023-03-11T02:01:29.713Z,98215.69
2023-03-11T02:02:35.239Z,98223.25
2023-03-11T02:03:11.736Z,98219.28
2023-03-11T02:03:43.713Z,98218.16
2023-03-11T02:04:16.227Z,98224.22
2023-03-11T02:04:49.636Z,98221.13
2023-03-11T02:05:23.622Z,98232.97
2023-03-11T02:05:59.762Z,98224.09
2023-03-11T02:06:32.706Z,98210.78
2023-03-11T02:07:07.393Z,98225.75
2023-03-11T02:07:42.184Z,98234.44
2023-03-11T02:08:13.959Z,98227.72
2023-03-11T02:08:46.297Z,98220.94
2023-03-11T02:09:18.061Z,98233.63
2023-03-11T02:09:49.787Z,98231.16
2023-03-11T02:10:22.160Z,98233.78
2023-03-11T02:10:54.608Z,98235.59
2023-03-11T02:11:30.791Z,98244.47
2023-03-11T02:12:04.684Z,98244.13
2023-03-11T02:12:37.976Z,98236.09
2023-03-11T02:13:10.767Z,98236.25
2023-03-11T02:13:45.515Z,98249.09
2023-03-11T02:14:17.651Z,98243.84
2023-03-11T02:14:54.009Z,98243.84
2023-03-11T02:15:26.115Z,98243.84
2023-03-11T02:16:00.724Z,98234.97
2023-03-11T02:16:32.962Z,98242.53
2023-03-11T02:17:04.840Z,98240.41
2023-03-11T02:17:37.948Z,98246.31
2023-03-11T02:18:14.782Z,98231.34
2023-03-11T02:18:46.645Z,98240.22
2023-03-11T02:19:35.997Z,98246.50
2023-03-11T02:20:41.296Z,98248.13
2023-03-11T02:21:26.528Z,98249.16
2023-03-11T02:21:58.625Z,98249.66
2023-03-11T02:22:33.517Z,98253.09
2023-03-11T02:23:05.265Z,98253.09
2023-03-11T02:23:58.325Z,98248.66
2023-03-11T02:24:57.544Z,98252.78
2023-03-11T02:25:56.152Z,98246.19
2023-03-11T02:26:37.887Z,98252.09
2023-03-11T02:27:14.028Z,98253.41
2023-03-11T02:27:51.094Z,98246.84
2023-03-11T02:28:24.289Z,98249.16
2023-03-11T02:28:58.553Z,98240.28
2023-03-11T02:29:32.223Z,98233.69
2023-03-11T02:30:04.961Z,98247.53
2023-03-11T02:30:38.997Z,98246.53
2023-03-11T02:31:11.556Z,98243.25
2023-03-11T02:31:44.283Z,98234.69
2023-03-11T02:32:16.903Z,98231.72
2023-03-11T02:32:49.973Z,98230.09
2023-03-11T02:33:23.588Z,98239.94
2023-03-11T02:34:00.418Z,98239.28
2023-03-11T02:34:34.623Z,98234.69
2023-03-11T02:35:07.341Z,98240.28
2023-03-11T02:35:39.546Z,98227.47
2023-03-11T02:36:30.383Z,98237.31
2023-03-11T02:37:07.110Z,98215.31
2023-03-11T02:37:44.824Z,98214.78
2023-03-11T02:38:16.557Z,98213.81
2023-03-11T02:38:48.248Z,98238.28
2023-03-11T02:39:35.030Z,98233.72
2023-03-11T02:40:22.122Z,98239.78
2023-03-11T02:41:02.076Z,98246.69
2023-03-11T02:41:38.037Z,98241.59
2023-03-11T02:42:23.288Z,98238.47
2023-03-11T02:42:58.135Z,98246.53
2023-03-11T02:43:43.592Z,98249.16
2023-03-11T02:44:16.643Z,98249.00
2023-03-11T02:44:58.488Z,98237.47
2023-03-11T02:45:31.633Z,98240.59
2023-03-11T02:46:07.142Z,98223.19
2023-03-11T02:46:42.675Z,98253.44
2023-03-11T02:47:16.442Z,98241.09
2023-03-11T02:47:49.606Z,98240.28
2023-03-11T02:48:22.098Z,98254.41
2023-03-11T02:48:56.137Z,98261.47
2023-03-11T02:49:28.001Z,98264.59
2023-03-11T02:49:59.706Z,98268.22
2023-03-11T02:50:32.122Z,98264.13
2023-03-11T02:51:04.113Z,98248.81
2023-03-11T02:51:36.060Z,98243.72
2023-03-11T02:52:07.899Z,98237.63
2023-03-11T02:52:39.669Z,98268.88
2023-03-11T02:53:11.449Z,98246.84
2023-03-11T02:53:50.628Z,98251.13
2023-03-11T02:54:22.371Z,98250.00
2023-03-11T02:54:54.111Z,98253.94
2023-03-11T02:55:25.813Z,98245.72
2023-03-11T02:55:57.657Z,98248.84
2023-03-11T02:56:29.394Z,98247.19
2023-03-11T02:57:01.127Z,98235.34
2023-03-11T02:57:32.847Z,98244.38
2023-03-11T02:58:04.540Z,98246.53
2023-03-11T02:58:36.334Z,98247.50
2023-03-11T02:59:08.055Z,98249.81
2023-03-11T02:59:39.788Z,98249.50
2023-03-11T03:00:15.601Z,98248.00
2023-03-11T03:00:47.299Z,98246.34
2023-03-11T03:01:19.038Z,98252.09
2023-03-11T03:01:50.829Z,98255.72
2023-03-11T03:02:22.552Z,98227.94
2023-03-11T03:02:54.915Z,98244.56
2023-03-11T03:03:26.596Z,98255.56
2023-03-11T03:03:58.382Z,98248.66
2023-03-11T03:04:30.239Z,98242.41
2023-03-11T03:05:02.018Z,98235.84
2023-03-11T03:05:33.722Z,98249.66
2023-03-11T03:06:05.964Z,98245.88
2023-03-11T03:06:37.694Z,98254.06
2023-03-11T03:07:09.810Z,98253.75
2023-03-11T03:07:41.500Z,98253.44
2023-03-11T03:08:13.619Z,98261.16
2023-03-11T03:08:45.421Z,98261.66
2023-03-11T03:09:17.241Z,98266.59
2023-03-11T03:09:49.023Z,98252.09
2023-03-11T03:10:22.346Z,98252.09
2023-03-11T03:10:54.304Z,98257.03
2023-03-11T03:11:26.125Z,98240.59
2023-03-11T03:11:57.892Z,98235.81
2023-03-11T03:12:29.663Z,98239.59
2023-03-11T03:13:01.380Z,98234.66
2023-03-11T03:13:33.056Z,98244.03
2023-03-11T03:14:04.759Z,98249.66
2023-03-11T03:14:36.959Z,98234.66
2023-03-11T03:15:10.194Z,98247.84
2023-03-11T03:15:42.019Z,98242.41
2023-03-11T03:16:13.797Z,98250.28
2023-03-11T03:16:45.614Z,98247.50
2023-03-11T03:17:17.575Z,98231.72
2023-03-11T03:17:51.614Z,98243.88
2023-03-11T03:18:23.392Z,98235.00
2023-03-11T03:18:55.202Z,98245.53
2023-03-11T03:19:26.941Z,98252.28
2023-03-11T03:19:58.663Z,98254.09
2023-03-11T03:20:30.923Z,98242.09
2023-03-11T03:21:02.634Z,98245.03
2023-03-11T03:21:34.326Z,98246.53
2023-03-11T03:22:06.501Z,98248.16
2023-03-11T03:22:39.603Z,98265.59
2023-03-11T03:23:11.318Z,98244.56
2023-03-11T03:23:43.060Z,98248.47
2023-03-11T03:24:14.773Z,98256.56
2023-03-11T03:24:46.622Z,98257.72
2023-03-11T03:25:18.689Z,98260.66
2023-03-11T03:25:50.592Z,98252.78
2023-03-11T03:26:22.291Z,98248.97
2023-03-11T03:26:54.018Z,98255.06
2023-03-11T03:27:25.702Z,98271.53
2023-03-11T03:27:57.409Z,98270.53
2023-03-11T03:28:29.126Z,98252.91
2023-03-11T03:29:00.810Z,98257.34
2023-03-11T03:29:32.561Z,98263.97
2023-03-11T03:30:05.687Z,98265.09
2023-03-11T03:30:37.984Z,98279.06
2023-03-11T03:31:10.779Z,98273.81
2023-03-11T03:31:42.543Z,98272.97
2023-03-11T03:32:14.357Z,98284.81
2023-03-11T03:32:46.163Z,98289.09
2023-03-11T03:33:17.929Z,98265.59
2023-03-11T03:33:49.648Z,98270.53
2023-03-11T03:34:21.339Z,98267.88
2023-03-11T03:34:58.344Z,98270.03
2023-03-11T03:35:30.130Z,98267.72
2023-03-11T03:36:06.514Z,98268.53
2023-03-11T03:36:38.222Z,98281.53
2023-03-11T03:37:09.933Z,98262.97
2023-03-11T03:37:41.639Z,98277.09
2023-03-11T03:38:13.827Z,98271.16
2023-03-11T03:38:45.672Z,98274.78
2023-03-11T03:39:19.791Z,98272.16
2023-03-11T03:39:51.750Z,98275.94
2023-03-11T03:40:23.757Z,98286.81
2023-03-11T03:40:55.461Z,98285.97
2023-03-11T03:41:27.679Z,98283.03
2023-03-11T03:41:59.368Z,98279.25
2023-03-11T03:42:31.865Z,98296.16
2023-03-11T03:43:04.183Z,98295.53
2023-03-11T03:43:35.928Z,98288.78
2023-03-11T03:44:07.662Z,98283.03
2023-03-11T03:44:39.521Z,98287.97
2023-03-11T03:45:11.925Z,98282.22
2023-03-11T03:45:43.595Z,98281.41
2023-03-11T03:46:15.606Z,98289.59
2023-03-11T03:46:47.408Z,98280.72
2023-03-11T03:47:19.973Z,98271.50
2023-03-11T03:47:51.695Z,98275.63
2023-03-11T03:48:23.631Z,98289.59
2023-03-11T03:48:55.336Z,98274.50
2023-03-11T03:49:27.377Z,98276.25
2023-03-11T03:49:59.093Z,98288.31
2023-03-11T03:50:30.781Z,98276.94
2023-03-11T03:51:04.982Z,98287.13
2023-03-11T03:51:37.054Z,98296.50
2023-03-11T03:52:10.506Z,98298.16
2023-03-11T03:52:42.229Z,98298.16
2023-03-11T03:53:13.960Z,98268.88
2023-03-11T03:53:48.468Z,98274.13
2023-03-11T03:54:20.170Z,98274.81
2023-03-11T03:54:52.176Z,98274.00
2023-03-11T03:55:23.891Z,98259.34
2023-03-11T03:55:55.790Z,98265.75
2023-03-11T03:56:27.626Z,98266.41
2023-03-11T03:56:59.339Z,98268.72
2023-03-11T03:57:31.512Z,98285.66
2023-03-11T03:58:03.277Z,98271.34
2023-03-11T03:58:35.410Z,98290.75
2023-03-11T03:59:07.142Z,98271.19
2023-03-11T03:59:38.835Z,98285.00
2023-03-11T04:00:11.800Z,98287.00
2023-03-11T04:00:43.504Z,98294.19
2023-03-11T04:01:15.361Z,98266.91
2023-03-11T04:01:47.040Z,98286.78
2023-03-11T04:02:19.073Z,98276.09
2023-03-11T04:02:50.852Z,98282.69
2023-03-11T04:03:22.649Z,98260.81
2023-03-11T04:03:54.406Z,98267.22
2023-03-11T04:04:26.533Z,98265.41
2023-03-11T04:04:58.241Z,98275.78
2023-03-11T04:05:29.955Z,98267.56
2023-03-11T04:06:16.439Z,98288.28
2023-03-11T04:06:48.286Z,98268.06
2023-03-11T04:07:19.996Z,98285.16
2023-03-11T04:07:51.736Z,98273.47
2023-03-11T04:08:23.449Z,98287.78
2023-03-11T04:08:55.929Z,98284.34
2023-03-11T04:09:27.876Z,98283.34
2023-03-11T04:09:59.554Z,98285.00
2023-03-11T04:10:31.282Z,98285.00
2023-03-11T04:11:03.487Z,98285.97
2023-03-11T04:11:35.441Z,98285.34
2023-03-11T04:12:07.492Z,98276.25
2023-03-11T04:12:39.185Z,98279.75
2023-03-11T04:13:11.116Z,98258.34
2023-03-11T04:13:44.754Z,98281.72
2023-03-11T04:14:17.494Z,98285.50
2023-03-11T04:14:49.246Z,98289.09
2023-03-11T04:15:21.000Z,98284.84
2023-03-11T04:15:52.741Z,98293.53
2023-03-11T04:16:25.199Z,98284.84
2023-03-11T04:16:57.930Z,98291.25
2023-03-11T04:17:29.975Z,98282.53
2023-03-11T04:18:01.683Z,98263.63
2023-03-11T04:18:34.249Z,98284.84
2023-03-11T04:19:05.939Z,98290.75
2023-03-11T04:19:37.639Z,98283.03
2023-03-11T04:20:10.495Z,98286.31
2023-03-11T04:20:42.218Z,98290.41
2023-03-11T04:21:14.582Z,98284.00
2023-03-11T04:21:46.285Z,98296.00
2023-03-11T04:22:17.989Z,98286.31
2023-03-11T04:22:49.987Z,98281.53
2023-03-11T04:23:21.662Z,98273.50
2023-03-11T04:23:53.370Z,98294.19
2023-03-11T04:24:25.066Z,98291.25
2023-03-11T04:24:56.760Z,98283.53
2023-03-11T04:25:28.423Z,98294.88
2023-03-11T04:26:00.812Z,98285.19
2023-03-11T04:26:32.585Z,98279.22
2023-03-11T04:27:04.280Z,98289.13
2023-03-11T04:27:36.026Z,98290.94
2023-03-11T04:28:07.851Z,98281.72
2023-03-11T04:28:39.558Z,98283.38
2023-03-11T04:29:11.469Z,98288.63
2023-03-11T04:29:43.193Z,98285.31
2023-03-11T04:30:14.883Z,98293.22
2023-03-11T04:30:46.633Z,98288.78
2023-03-11T04:31:18.929Z,98277.75
2023-03-11T04:31:50.680Z,98284.50
2023-03-11T04:32:23.086Z,98295.00
2023-03-11T04:32:54.861Z,98287.97
2023-03-11T04:33:26.704Z,98288.63
2023-03-11T04:33:58.475Z,98292.91
2023-03-11T04:34:30.414Z,98297.00
2023-03-11T04:35:02.127Z,98292.25
2023-03-11T04:35:34.400Z,98286.63
2023-03-11T04:36:08.550Z,98280.56
2023-03-11T04:36:40.278Z,98299.78
2023-03-11T04:37:12.005Z,98306.38
2023-03-11T04:37:43.689Z,98304.69
2023-03-11T04:38:15.347Z,98307.66
2023-03-11T04:38:47.149Z,98307.66
2023-03-11T04:39:18.846Z,98292.19
2023-03-11T04:39:53.417Z,98300.44
2023-03-11T04:40:25.107Z,98301.09
2023-03-11T04:41:07.025Z,98305.53
2023-03-11T04:41:38.753Z,98302.09
2023-03-11T04:42:10.521Z,98305.72
2023-03-11T04:42:42.306Z,98313.75
2023-03-11T04:43:13.983Z,98308.00
2023-03-11T04:43:45.643Z,98310.31
2023-03-11T04:44:18.788Z,98312.44
2023-03-11T04:44:50.490Z,98311.97
2023-03-11T04:45:22.216Z,98314.13
2023-03-11T04:45:53.999Z,98309.00
2023-03-11T04:46:25.729Z,98317.56
2023-03-11T04:46:57.397Z,98324.47
2023-03-11T04:47:29.129Z,98328.09
2023-03-11T04:48:00.799Z,98310.81
2023-03-11T04:48:32.521Z,98320.38
2023-03-11T04:49:04.308Z,98318.22
2023-03-11T04:49:36.099Z,98325.13
2023-03-11T04:50:08.007Z,98325.44
2023-03-11T04:50:39.830Z,98317.22
2023-03-11T04:51:11.575Z,98316.41
2023-03-11T04:51:43.330Z,98323.16
2023-03-11T04:52:15.031Z,98325.78
2023-03-11T04:52:47.261Z,98329.88
2023-03-11T04:53:19.227Z,98328.09
2023-03-11T04:53:50.904Z,98331.84
2023-03-11T04:54:22.564Z,98328.41
2023-03-11T04:54:54.316Z,98329.72
2023-03-11T04:55:26.237Z,98331.38
2023-03-11T04:55:57.930Z,98331.69
2023-03-11T04:56:29.613Z,98331.69
2023-03-11T04:57:01.406Z,98334.16
2023-03-11T04:57:33.383Z,98337.78
2023-03-11T04:58:05.373Z,98334.50
2023-03-11T04:58:37.313Z,98340.25
2023-03-11T04:59:09.069Z,98331.53
2023-03-11T04:59:40.835Z,98337.94
2023-03-11T05:00:15.634Z,98340.56
2023-03-11T05:00:47.377Z,98338.91
2023-03-11T05:01:19.084Z,98333.34
2023-03-11T05:01:50.978Z,98339.94
2023-03-11T05:02:22.690Z,98336.31
2023-03-11T05:02:54.513Z,98327.94
2023-03-11T05:03:26.372Z,98332.84
2023-03-11T05:03:58.090Z,98333.69
2023-03-11T05:04:30.069Z,98332.38
2023-03-11T05:05:01.919Z,98344.84
2023-03-11T05:05:33.657Z,98328.41
2023-03-11T05:06:05.846Z,98343.22
2023-03-11T05:06:37.527Z,98345.84
2023-03-11T05:07:09.230Z,98340.75
2023-03-11T05:07:40.905Z,98343.22
2023-03-11T05:08:12.625Z,98335.00
2023-03-11T05:08:44.358Z,98343.88
2023-03-11T05:09:16.033Z,98336.31
2023-03-11T05:09:47.764Z,98333.34
2023-03-11T05:10:22.700Z,98353.91
2023-03-11T05:10:54.454Z,98345.19
2023-03-11T05:11:26.200Z,98345.50
2023-03-11T05:11:58.012Z,98348.81
2023-03-11T05:12:32.356Z,98333.00
2023-03-11T05:13:04.173Z,98328.25
2023-03-11T05:13:36.152Z,98331.69
2023-03-11T05:14:07.916Z,98343.03
2023-03-11T05:14:39.805Z,98341.91
2023-03-11T05:15:11.857Z,98350.81
2023-03-11T05:15:46.284Z,98348.81
2023-03-11T05:16:18.212Z,98344.03
2023-03-11T05:16:49.964Z,98350.13
2023-03-11T05:17:21.657Z,98344.34
2023-03-11T05:17:53.338Z,98356.19
2023-03-11T05:18:25.172Z,98357.84
2023-03-11T05:18:56.882Z,98356.53
2023-03-11T05:19:31.605Z,98372.16
2023-03-11T05:20:06.336Z,98365.06
2023-03-11T05:20:38.858Z,98357.69
2023-03-11T05:21:10.658Z,98340.09
2023-03-11T05:21:42.376Z,98352.25
2023-03-11T05:22:14.088Z,98362.78
2023-03-11T05:22:46.207Z,98370.03
2023-03-11T05:23:17.971Z,98359.81
2023-03-11T05:23:49.760Z,98373.31
2023-03-11T05:24:21.506Z,98369.53
2023-03-11T05:24:53.223Z,98373.31
2023-03-11T05:25:25.440Z,98380.41
2023-03-11T05:25:57.227Z,98380.22
2023-03-11T05:26:28.931Z,98371.84
2023-03-11T05:27:02.069Z,98377.41
2023-03-11T05:27:33.805Z,98380.22
2023-03-11T05:28:05.954Z,98391.59
2023-03-11T05:28:37.666Z,98391.59
2023-03-11T05:29:09.429Z,98370.00
2023-03-11T05:29:41.505Z,98388.09
2023-03-11T05:30:13.423Z,98401.25
2023-03-11T05:30:45.144Z,98392.53
2023-03-11T05:31:16.955Z,98387.41
2023-03-11T05:31:48.939Z,98385.28
2023-03-11T05:32:21.198Z,98406.19
2023-03-11T05:32:53.078Z,98393.34
2023-03-11T05:33:24.810Z,98390.69
2023-03-11T05:33:56.926Z,98385.88
2023-03-11T05:34:28.640Z,98394.75
2023-03-11T05:35:00.407Z,98386.03
2023-03-11T05:35:32.158Z,98400.34
2023-03-11T05:36:07.194Z,98391.47
2023-03-11T05:36:38.941Z,98383.16
2023-03-11T05:37:10.817Z,98391.72
2023-03-11T05:37:42.662Z,98394.34
2023-03-11T05:38:14.771Z,98385.56
2023-03-11T05:38:46.461Z,98396.56
2023-03-11T05:39:18.232Z,98398.84
2023-03-11T05:39:51.412Z,98401.47
2023-03-11T05:40:23.101Z,98390.94
2023-03-11T05:40:54.737Z,98387.66
2023-03-11T05:41:26.396Z,98396.88
2023-03-11T05:41:58.204Z,98387.94
2023-03-11T05:42:29.901Z,98392.22
2023-03-11T05:43:01.584Z,98395.00
2023-03-11T05:43:33.483Z,98389.25
2023-03-11T05:44:05.515Z,98390.69
2023-03-11T05:44:37.225Z,98395.59
2023-03-11T05:45:10.080Z,98393.91
2023-03-11T05:45:41.827Z,98396.84
2023-03-11T05:46:13.561Z,98397.97
2023-03-11T05:46:45.417Z,98383.25
2023-03-11T05:47:17.999Z,98400.19
2023-03-11T05:47:49.697Z,98396.56
2023-03-11T05:48:21.405Z,98399.13
2023-03-11T05:48:53.171Z,98398.84
2023-03-11T05:49:24.961Z,98397.03
2023-03-11T05:49:56.715Z,98403.13
2023-03-11T05:50:28.445Z,98399.50
2023-03-11T05:51:00.153Z,98400.41
2023-03-11T05:51:31.934Z,98415.56
2023-03-11T05:52:03.922Z,98414.59
2023-03-11T05:52:35.610Z,98413.63
2023-03-11T05:53:07.326Z,98420.97
2023-03-11T05:53:39.113Z,98415.34
2023-03-11T05:54:15.141Z,98421.88
2023-03-11T05:54:51.444Z,98415.13
2023-03-11T05:55:23.288Z,98426.66
2023-03-11T05:55:59.509Z,98427.78
2023-03-11T05:56:31.204Z,98425.41
2023-03-11T05:57:02.964Z,98423.91
2023-03-11T05:57:34.653Z,98435.75
2023-03-11T05:58:06.761Z,98432.22
2023-03-11T05:58:38.471Z,98433.88
2023-03-11T05:59:11.481Z,98441.75
2023-03-11T05:59:43.331Z,98442.72
2023-03-11T06:00:15.608Z,98446.13
2023-03-11T06:00:47.289Z,98446.13
2023-03-11T06:01:20.219Z,98447.75
2023-03-11T06:01:51.872Z,98451.16
2023-03-11T06:02:23.585Z,98459.59
2023-03-11T06:02:55.377Z,98462.22
2023-03-11T06:03:27.095Z,98455.50
2023-03-11T06:03:58.938Z,98454.16
2023-03-11T06:04:31.117Z,98461.88
2023-03-11T06:05:03.008Z,98465.47
2023-03-11T06:05:34.803Z,98471.69
2023-03-11T06:06:09.882Z,98472.81
2023-03-11T06:06:42.212Z,98473.66
2023-03-11T06:07:15.452Z,98465.38
2023-03-11T06:07:47.313Z,98478.91
2023-03-11T06:08:19.202Z,98477.81
2023-03-11T06:08:50.908Z,98484.72
2023-03-11T06:09:23.809Z,98481.19
2023-03-11T06:09:55.683Z,98466.31
2023-03-11T06:10:27.384Z,98481.94
2023-03-11T06:11:11.731Z,98480.56
2023-03-11T06:11:43.401Z,98475.31
2023-03-11T06:12:15.097Z,98469.84
2023-03-11T06:12:46.765Z,98477.94
2023-03-11T06:13:18.651Z,98473.53
2023-03-11T06:13:53.498Z,98485.81
2023-03-11T06:14:25.220Z,98476.91
2023-03-11T06:14:56.892Z,98470.59
2023-03-11T06:15:29.607Z,98480.78
2023-03-11T06:16:02.268Z,98481.34
2023-03-11T06:16:34.066Z,98472.50
2023-03-11T06:17:05.875Z,98477.19
2023-03-11T06:17:37.636Z,98492.78
2023-03-11T06:18:09.299Z,98487.16
2023-03-11T06:18:41.003Z,98484.19
2023-03-11T06:19:13.051Z,98483.41
2023-03-11T06:19:44.734Z,98481.22
2023-03-11T06:20:16.683Z,98476.00
2023-03-11T06:20:48.576Z,98486.75
2023-03-11T06:21:24.014Z,98486.22
2023-03-11T06:21:55.681Z,98484.81
2023-03-11T06:22:27.388Z,98497.25
2023-03-11T06:22:59.147Z,98493.28
2023-03-11T06:23:32.089Z,98486.00
2023-03-11T06:24:04.010Z,98491.53
2023-03-11T06:24:35.691Z,98489.06
2023-03-11T06:25:08.118Z,98485.09
2023-03-11T06:25:39.856Z,98481.38
2023-03-11T06:26:15.271Z,98476.97
2023-03-11T06:26:50.892Z,98501.19
2023-03-11T06:27:22.568Z,98484.97